sensor_id;sensor_type;location;lat;lon;timestamp;temperature;humidity
7232;DHT22;3657;49.630;11.018;2022-07-18T00:00:32;22.40;43.10
7232;DHT22;3657;49.630;11.018;2022-07-18T00:02:59;22.40;43.10
7232;DHT22;3657;49.630;11.018;2022-07-18T00:05:27;22.40;43.20
7232;DHT22;3657;49.630;11.018;2022-07-18T00:07:54;22.30;43.10
7232;DHT22;3657;49.630;11.018;2022-07-18T00:10:20;22.30;43.10
7232;DHT22;3657;49.630;11.018;2022-07-18T00:12:47;22.20;43.10
7232;DHT22;3657;49.630;11.018;2022-07-18T00:15:14;22.20;43.30
7232;DHT22;3657;49.630;11.018;2022-07-18T00:17:41;22.10;43.20
7232;DHT22;3657;49.630;11.018;2022-07-18T00:20:10;22.10;43.30
7232;DHT22;3657;49.630;11.018;2022-07-18T00:22:38;22.00;43.30
7232;DHT22;3657;49.630;11.018;2022-07-18T00:25:08;22.00;43.30
7232;DHT22;3657;49.630;11.018;2022-07-18T00:27:35;22.00;43.30
7232;DHT22;3657;49.630;11.018;2022-07-18T00:30:02;21.90;43.30
7232;DHT22;3657;49.630;11.018;2022-07-18T00:32:29;21.90;43.30
7232;DHT22;3657;49.630;11.018;2022-07-18T00:34:56;21.80;43.30
7232;DHT22;3657;49.630;11.018;2022-07-18T00:37:23;21.80;43.40
7232;DHT22;3657;49.630;11.018;2022-07-18T00:39:51;21.70;43.40
7232;DHT22;3657;49.630;11.018;2022-07-18T00:42:18;21.70;43.50
7232;DHT22;3657;49.630;11.018;2022-07-18T00:44:46;21.60;43.50
7232;DHT22;3657;49.630;11.018;2022-07-18T00:47:12;21.60;43.60
7232;DHT22;3657;49.630;11.018;2022-07-18T00:49:39;21.60;43.60
7232;DHT22;3657;49.630;11.018;2022-07-18T00:52:06;21.50;43.60
7232;DHT22;3657;49.630;11.018;2022-07-18T00:54:33;21.50;43.60
7232;DHT22;3657;49.630;11.018;2022-07-18T00:57:01;21.50;43.70
7232;DHT22;3657;49.630;11.018;2022-07-18T00:59:28;21.40;43.80
7232;DHT22;3657;49.630;11.018;2022-07-18T01:02:09;21.40;43.90
7232;DHT22;3657;49.630;11.018;2022-07-18T01:04:36;21.30;43.80
7232;DHT22;3657;49.630;11.018;2022-07-18T01:07:03;21.30;43.80
7232;DHT22;3657;49.630;11.018;2022-07-18T01:09:30;21.30;43.90
7232;DHT22;3657;49.630;11.018;2022-07-18T01:11:56;21.20;43.80
7232;DHT22;3657;49.630;11.018;2022-07-18T01:14:25;21.20;43.80
7232;DHT22;3657;49.630;11.018;2022-07-18T01:16:53;21.20;43.80
7232;DHT22;3657;49.630;11.018;2022-07-18T01:19:20;21.10;44.00
7232;DHT22;3657;49.630;11.018;2022-07-18T01:21:48;21.10;44.10
7232;DHT22;3657;49.630;11.018;2022-07-18T01:24:15;21.00;44.10
7232;DHT22;3657;49.630;11.018;2022-07-18T01:26:42;21.00;44.10
7232;DHT22;3657;49.630;11.018;2022-07-18T01:29:08;21.00;44.10
7232;DHT22;3657;49.630;11.018;2022-07-18T01:31:35;21.00;44.30
7232;DHT22;3657;49.630;11.018;2022-07-18T01:34:02;20.90;44.30
7232;DHT22;3657;49.630;11.018;2022-07-18T01:36:29;20.90;44.30
7232;DHT22;3657;49.630;11.018;2022-07-18T01:38:57;20.80;44.30
7232;DHT22;3657;49.630;11.018;2022-07-18T01:41:23;20.80;44.30
7232;DHT22;3657;49.630;11.018;2022-07-18T01:43:50;20.70;44.30
7232;DHT22;3657;49.630;11.018;2022-07-18T01:46:17;20.70;44.40
7232;DHT22;3657;49.630;11.018;2022-07-18T01:48:44;20.70;44.40
7232;DHT22;3657;49.630;11.018;2022-07-18T01:51:11;20.60;44.30
7232;DHT22;3657;49.630;11.018;2022-07-18T01:53:38;20.60;44.50
7232;DHT22;3657;49.630;11.018;2022-07-18T01:56:07;20.60;44.40
7232;DHT22;3657;49.630;11.018;2022-07-18T01:58:34;20.50;44.50
7232;DHT22;3657;49.630;11.018;2022-07-18T02:01:02;20.50;44.50
7232;DHT22;3657;49.630;11.018;2022-07-18T02:03:28;20.50;44.70
7232;DHT22;3657;49.630;11.018;2022-07-18T02:05:55;20.40;44.60
7232;DHT22;3657;49.630;11.018;2022-07-18T02:08:22;20.40;44.70
7232;DHT22;3657;49.630;11.018;2022-07-18T02:10:48;20.30;44.60
7232;DHT22;3657;49.630;11.018;2022-07-18T02:13:17;20.30;44.80
7232;DHT22;3657;49.630;11.018;2022-07-18T02:15:45;20.30;44.80
7232;DHT22;3657;49.630;11.018;2022-07-18T02:18:12;20.20;44.80
7232;DHT22;3657;49.630;11.018;2022-07-18T02:20:39;20.20;44.90
7232;DHT22;3657;49.630;11.018;2022-07-18T02:23:05;20.10;44.80
7232;DHT22;3657;49.630;11.018;2022-07-18T02:25:33;20.10;44.90
7232;DHT22;3657;49.630;11.018;2022-07-18T02:28:00;20.10;45.00
7232;DHT22;3657;49.630;11.018;2022-07-18T02:30:30;20.10;45.00
7232;DHT22;3657;49.630;11.018;2022-07-18T02:32:57;20.00;45.00
7232;DHT22;3657;49.630;11.018;2022-07-18T02:35:24;20.00;45.00
7232;DHT22;3657;49.630;11.018;2022-07-18T02:37:50;20.00;45.10
7232;DHT22;3657;49.630;11.018;2022-07-18T02:40:17;19.90;45.10
7232;DHT22;3657;49.630;11.018;2022-07-18T02:42:44;19.90;45.20
7232;DHT22;3657;49.630;11.018;2022-07-18T02:45:11;19.90;45.20
7232;DHT22;3657;49.630;11.018;2022-07-18T02:47:39;19.80;45.20
7232;DHT22;3657;49.630;11.018;2022-07-18T02:50:07;19.80;45.30
7232;DHT22;3657;49.630;11.018;2022-07-18T02:52:34;19.80;45.40
7232;DHT22;3657;49.630;11.018;2022-07-18T02:55:01;19.70;45.40
7232;DHT22;3657;49.630;11.018;2022-07-18T02:57:27;19.70;45.40
7232;DHT22;3657;49.630;11.018;2022-07-18T02:59:54;19.70;45.40
7232;DHT22;3657;49.630;11.018;2022-07-18T03:02:21;19.70;45.50
7232;DHT22;3657;49.630;11.018;2022-07-18T03:04:49;19.60;45.40
7232;DHT22;3657;49.630;11.018;2022-07-18T03:07:15;19.60;45.50
7232;DHT22;3657;49.630;11.018;2022-07-18T03:09:42;19.50;45.40
7232;DHT22;3657;49.630;11.018;2022-07-18T03:12:09;19.50;45.50
7232;DHT22;3657;49.630;11.018;2022-07-18T03:14:36;19.50;45.60
7232;DHT22;3657;49.630;11.018;2022-07-18T03:17:02;19.40;45.50
7232;DHT22;3657;49.630;11.018;2022-07-18T03:19:29;19.40;45.60
7232;DHT22;3657;49.630;11.018;2022-07-18T03:21:57;19.40;45.70
7232;DHT22;3657;49.630;11.018;2022-07-18T03:24:24;19.30;45.70
7232;DHT22;3657;49.630;11.018;2022-07-18T03:26:51;19.30;45.70
7232;DHT22;3657;49.630;11.018;2022-07-18T03:29:18;19.30;45.80
7232;DHT22;3657;49.630;11.018;2022-07-18T03:31:44;19.20;45.80
7232;DHT22;3657;49.630;11.018;2022-07-18T03:34:11;19.20;46.00
7232;DHT22;3657;49.630;11.018;2022-07-18T03:36:38;19.20;46.10
7232;DHT22;3657;49.630;11.018;2022-07-18T03:39:09;19.10;46.10
7232;DHT22;3657;49.630;11.018;2022-07-18T03:41:38;19.10;46.20
7232;DHT22;3657;49.630;11.018;2022-07-18T03:44:05;19.10;46.30
7232;DHT22;3657;49.630;11.018;2022-07-18T03:46:32;19.10;46.40
7232;DHT22;3657;49.630;11.018;2022-07-18T03:48:59;19.00;46.30
7232;DHT22;3657;49.630;11.018;2022-07-18T03:51:29;19.00;46.40
7232;DHT22;3657;49.630;11.018;2022-07-18T03:53:55;19.00;46.50
7232;DHT22;3657;49.630;11.018;2022-07-18T03:56:23;19.00;46.60
7232;DHT22;3657;49.630;11.018;2022-07-18T03:58:50;18.90;46.60
7232;DHT22;3657;49.630;11.018;2022-07-18T04:01:17;18.90;46.60
7232;DHT22;3657;49.630;11.018;2022-07-18T04:03:43;18.80;46.60
7232;DHT22;3657;49.630;11.018;2022-07-18T04:06:10;18.80;46.70
7232;DHT22;3657;49.630;11.018;2022-07-18T04:08:40;18.90;46.80
7232;DHT22;3657;49.630;11.018;2022-07-18T04:11:06;18.80;46.70
7232;DHT22;3657;49.630;11.018;2022-07-18T04:13:34;18.80;46.80
7232;DHT22;3657;49.630;11.018;2022-07-18T04:16:01;18.80;46.90
7232;DHT22;3657;49.630;11.018;2022-07-18T04:18:28;18.70;46.80
7232;DHT22;3657;49.630;11.018;2022-07-18T04:20:55;18.70;46.90
7232;DHT22;3657;49.630;11.018;2022-07-18T04:23:22;18.70;46.90
7232;DHT22;3657;49.630;11.018;2022-07-18T04:25:48;18.70;47.00
7232;DHT22;3657;49.630;11.018;2022-07-18T04:28:15;18.70;47.10
7232;DHT22;3657;49.630;11.018;2022-07-18T04:30:43;18.60;47.00
7232;DHT22;3657;49.630;11.018;2022-07-18T04:33:11;18.60;47.00
7232;DHT22;3657;49.630;11.018;2022-07-18T04:35:38;18.60;47.10
7232;DHT22;3657;49.630;11.018;2022-07-18T04:38:06;18.60;47.10
7232;DHT22;3657;49.630;11.018;2022-07-18T04:40:33;18.60;47.20
7232;DHT22;3657;49.630;11.018;2022-07-18T04:43:00;18.50;47.10
7232;DHT22;3657;49.630;11.018;2022-07-18T04:45:27;18.50;47.20
7232;DHT22;3657;49.630;11.018;2022-07-18T04:47:55;18.50;47.20
7232;DHT22;3657;49.630;11.018;2022-07-18T04:50:23;18.50;47.20
7232;DHT22;3657;49.630;11.018;2022-07-18T04:52:50;18.40;47.10
7232;DHT22;3657;49.630;11.018;2022-07-18T04:55:20;18.40;47.20
7232;DHT22;3657;49.630;11.018;2022-07-18T04:57:48;18.40;47.20
7232;DHT22;3657;49.630;11.018;2022-07-18T05:00:16;18.40;47.20
7232;DHT22;3657;49.630;11.018;2022-07-18T05:02:45;18.40;47.20
7232;DHT22;3657;49.630;11.018;2022-07-18T05:05:15;18.40;47.20
7232;DHT22;3657;49.630;11.018;2022-07-18T05:07:43;18.40;47.20
7232;DHT22;3657;49.630;11.018;2022-07-18T05:10:12;18.40;47.20
7232;DHT22;3657;49.630;11.018;2022-07-18T05:12:40;18.40;47.20
7232;DHT22;3657;49.630;11.018;2022-07-18T05:15:09;18.40;47.10
7232;DHT22;3657;49.630;11.018;2022-07-18T05:17:36;18.50;47.20
7232;DHT22;3657;49.630;11.018;2022-07-18T05:20:04;18.50;47.20
7232;DHT22;3657;49.630;11.018;2022-07-18T05:22:34;18.50;47.10
7232;DHT22;3657;49.630;11.018;2022-07-18T05:25:01;18.60;47.20
7232;DHT22;3657;49.630;11.018;2022-07-18T05:27:28;18.60;47.00
7232;DHT22;3657;49.630;11.018;2022-07-18T05:29:55;18.70;47.10
7232;DHT22;3657;49.630;11.018;2022-07-18T05:32:24;18.70;47.00
7232;DHT22;3657;49.630;11.018;2022-07-18T05:34:51;18.80;47.00
7232;DHT22;3657;49.630;11.018;2022-07-18T05:37:18;18.90;47.00
7232;DHT22;3657;49.630;11.018;2022-07-18T05:39:46;19.00;47.00
7232;DHT22;3657;49.630;11.018;2022-07-18T05:42:13;19.10;47.00
7232;DHT22;3657;49.630;11.018;2022-07-18T05:44:40;19.20;46.80
7232;DHT22;3657;49.630;11.018;2022-07-18T05:47:07;19.40;46.90
7232;DHT22;3657;49.630;11.018;2022-07-18T05:49:41;19.60;46.90
7232;DHT22;3657;49.630;11.018;2022-07-18T05:52:08;19.80;46.60
7232;DHT22;3657;49.630;11.018;2022-07-18T05:54:35;19.90;46.60
7232;DHT22;3657;49.630;11.018;2022-07-18T05:57:03;20.20;46.40
7232;DHT22;3657;49.630;11.018;2022-07-18T05:59:30;20.40;46.20
7232;DHT22;3657;49.630;11.018;2022-07-18T06:01:56;20.60;46.10
7232;DHT22;3657;49.630;11.018;2022-07-18T06:04:23;20.80;46.20
7232;DHT22;3657;49.630;11.018;2022-07-18T06:06:50;20.90;45.90
7232;DHT22;3657;49.630;11.018;2022-07-18T06:09:17;21.10;45.90
7232;DHT22;3657;49.630;11.018;2022-07-18T06:11:44;21.30;45.90
7232;DHT22;3657;49.630;11.018;2022-07-18T06:14:12;21.40;45.80
7232;DHT22;3657;49.630;11.018;2022-07-18T06:16:39;21.50;46.00
7232;DHT22;3657;49.630;11.018;2022-07-18T06:19:06;21.70;46.00
7232;DHT22;3657;49.630;11.018;2022-07-18T06:21:33;21.80;47.20
7232;DHT22;3657;49.630;11.018;2022-07-18T06:24:00;21.90;47.30
7232;DHT22;3657;49.630;11.018;2022-07-18T06:26:27;22.10;47.20
7232;DHT22;3657;49.630;11.018;2022-07-18T06:28:53;22.40;45.00
7232;DHT22;3657;49.630;11.018;2022-07-18T06:31:21;22.60;46.30
7232;DHT22;3657;49.630;11.018;2022-07-18T06:33:48;22.80;44.60
7232;DHT22;3657;49.630;11.018;2022-07-18T06:36:15;23.00;44.40
7232;DHT22;3657;49.630;11.018;2022-07-18T06:38:43;23.00;44.60
7232;DHT22;3657;49.630;11.018;2022-07-18T06:41:10;23.10;44.60
7232;DHT22;3657;49.630;11.018;2022-07-18T06:43:37;23.20;45.10
7232;DHT22;3657;49.630;11.018;2022-07-18T06:46:06;23.30;45.00
7232;DHT22;3657;49.630;11.018;2022-07-18T06:48:34;23.40;45.10
7232;DHT22;3657;49.630;11.018;2022-07-18T06:51:01;23.50;45.60
7232;DHT22;3657;49.630;11.018;2022-07-18T06:53:29;23.60;45.50
7232;DHT22;3657;49.630;11.018;2022-07-18T06:55:57;23.70;46.20
7232;DHT22;3657;49.630;11.018;2022-07-18T06:58:24;23.90;46.50
7232;DHT22;3657;49.630;11.018;2022-07-18T07:00:51;24.00;47.60
7232;DHT22;3657;49.630;11.018;2022-07-18T07:03:17;24.20;46.40
7232;DHT22;3657;49.630;11.018;2022-07-18T07:05:45;24.30;46.60
7232;DHT22;3657;49.630;11.018;2022-07-18T07:08:12;24.40;47.40
7232;DHT22;3657;49.630;11.018;2022-07-18T07:10:39;24.70;47.40
7232;DHT22;3657;49.630;11.018;2022-07-18T07:13:09;24.90;46.70
7232;DHT22;3657;49.630;11.018;2022-07-18T07:15:36;25.20;46.60
7232;DHT22;3657;49.630;11.018;2022-07-18T07:18:05;25.30;46.30
7232;DHT22;3657;49.630;11.018;2022-07-18T07:20:32;25.50;46.40
7232;DHT22;3657;49.630;11.018;2022-07-18T07:23:00;25.60;46.50
7232;DHT22;3657;49.630;11.018;2022-07-18T07:25:32;25.70;46.50
7232;DHT22;3657;49.630;11.018;2022-07-18T07:28:03;25.80;46.40
7232;DHT22;3657;49.630;11.018;2022-07-18T07:30:31;25.80;46.40
7232;DHT22;3657;49.630;11.018;2022-07-18T07:32:59;26.00;46.50
7232;DHT22;3657;49.630;11.018;2022-07-18T07:35:28;26.10;46.20
7232;DHT22;3657;49.630;11.018;2022-07-18T07:37:56;26.30;46.40
7232;DHT22;3657;49.630;11.018;2022-07-18T07:40:26;26.50;46.30
7232;DHT22;3657;49.630;11.018;2022-07-18T07:43:04;26.70;46.10
7232;DHT22;3657;49.630;11.018;2022-07-18T07:45:35;26.70;46.00
7232;DHT22;3657;49.630;11.018;2022-07-18T07:48:02;26.80;46.00
7232;DHT22;3657;49.630;11.018;2022-07-18T07:50:29;26.90;45.90
7232;DHT22;3657;49.630;11.018;2022-07-18T07:52:56;27.10;46.30
7232;DHT22;3657;49.630;11.018;2022-07-18T07:55:24;27.20;46.30
7232;DHT22;3657;49.630;11.018;2022-07-18T07:57:51;27.20;45.80
7232;DHT22;3657;49.630;11.018;2022-07-18T08:00:18;27.30;46.20
7232;DHT22;3657;49.630;11.018;2022-07-18T08:02:55;27.50;46.50
7232;DHT22;3657;49.630;11.018;2022-07-18T08:05:23;27.70;46.30
7232;DHT22;3657;49.630;11.018;2022-07-18T08:07:50;27.90;46.20
7232;DHT22;3657;49.630;11.018;2022-07-18T08:10:17;27.90;45.50
7232;DHT22;3657;49.630;11.018;2022-07-18T08:12:45;28.00;45.20
7232;DHT22;3657;49.630;11.018;2022-07-18T08:15:12;28.10;46.10
7232;DHT22;3657;49.630;11.018;2022-07-18T08:17:39;28.30;46.20
7232;DHT22;3657;49.630;11.018;2022-07-18T08:20:07;28.40;45.00
7232;DHT22;3657;49.630;11.018;2022-07-18T08:22:34;28.50;46.00
7232;DHT22;3657;49.630;11.018;2022-07-18T08:25:01;28.60;46.00
7232;DHT22;3657;49.630;11.018;2022-07-18T08:27:28;28.70;45.90
7232;DHT22;3657;49.630;11.018;2022-07-18T08:29:56;28.80;45.40
7232;DHT22;3657;49.630;11.018;2022-07-18T08:32:22;29.00;46.00
7232;DHT22;3657;49.630;11.018;2022-07-18T08:34:49;29.10;45.90
7232;DHT22;3657;49.630;11.018;2022-07-18T08:37:18;29.30;45.80
7232;DHT22;3657;49.630;11.018;2022-07-18T08:39:45;29.40;45.40
7232;DHT22;3657;49.630;11.018;2022-07-18T08:42:11;29.50;45.60
7232;DHT22;3657;49.630;11.018;2022-07-18T08:44:39;29.70;45.70
7232;DHT22;3657;49.630;11.018;2022-07-18T08:47:08;29.90;45.50
7232;DHT22;3657;49.630;11.018;2022-07-18T08:49:35;30.10;45.40
7232;DHT22;3657;49.630;11.018;2022-07-18T08:52:02;30.20;45.40
7232;DHT22;3657;49.630;11.018;2022-07-18T08:54:30;30.10;40.60
7232;DHT22;3657;49.630;11.018;2022-07-18T08:56:57;30.30;44.70
7232;DHT22;3657;49.630;11.018;2022-07-18T08:59:24;30.50;44.60
7232;DHT22;3657;49.630;11.018;2022-07-18T09:01:50;30.70;45.00
7232;DHT22;3657;49.630;11.018;2022-07-18T09:04:34;30.80;44.90
7232;DHT22;3657;49.630;11.018;2022-07-18T09:07:01;31.00;44.80
7232;DHT22;3657;49.630;11.018;2022-07-18T09:09:29;31.20;43.50
7232;DHT22;3657;49.630;11.018;2022-07-18T09:11:58;31.20;41.40
7232;DHT22;3657;49.630;11.018;2022-07-18T09:14:33;31.40;44.20
7232;DHT22;3657;49.630;11.018;2022-07-18T09:17:03;31.40;43.80
7232;DHT22;3657;49.630;11.018;2022-07-18T09:19:30;31.60;44.10
7232;DHT22;3657;49.630;11.018;2022-07-18T09:22:13;31.70;41.80
7232;DHT22;3657;49.630;11.018;2022-07-18T09:24:56;31.90;44.00
7232;DHT22;3657;49.630;11.018;2022-07-18T09:27:35;32.10;44.00
7232;DHT22;3657;49.630;11.018;2022-07-18T09:30:20;32.20;42.30
7232;DHT22;3657;49.630;11.018;2022-07-18T09:32:48;32.20;43.60
7232;DHT22;3657;49.630;11.018;2022-07-18T09:35:19;32.40;43.60
7232;DHT22;3657;49.630;11.018;2022-07-18T09:37:59;32.50;43.60
7232;DHT22;3657;49.630;11.018;2022-07-18T09:40:28;32.60;43.70
7232;DHT22;3657;49.630;11.018;2022-07-18T09:42:57;32.80;43.80
7232;DHT22;3657;49.630;11.018;2022-07-18T09:45:27;33.00;43.80
7232;DHT22;3657;49.630;11.018;2022-07-18T09:47:56;33.10;43.10
7232;DHT22;3657;49.630;11.018;2022-07-18T09:50:31;33.20;38.40
7232;DHT22;3657;49.630;11.018;2022-07-18T09:53:08;33.30;43.10
7232;DHT22;3657;49.630;11.018;2022-07-18T09:55:36;33.30;42.20
7232;DHT22;3657;49.630;11.018;2022-07-18T09:58:07;33.50;41.30
7232;DHT22;3657;49.630;11.018;2022-07-18T10:00:36;33.40;36.40
7232;DHT22;3657;49.630;11.018;2022-07-18T10:03:05;33.50;39.70
7232;DHT22;3657;49.630;11.018;2022-07-18T10:05:34;33.60;37.20
7232;DHT22;3657;49.630;11.018;2022-07-18T10:08:05;33.80;41.70
7232;DHT22;3657;49.630;11.018;2022-07-18T10:10:32;34.10;40.30
7232;DHT22;3657;49.630;11.018;2022-07-18T10:13:01;34.00;40.70
7232;DHT22;3657;49.630;11.018;2022-07-18T10:15:31;34.20;41.80
7232;DHT22;3657;49.630;11.018;2022-07-18T10:17:59;34.50;41.10
7232;DHT22;3657;49.630;11.018;2022-07-18T10:20:29;34.70;41.40
7232;DHT22;3657;49.630;11.018;2022-07-18T10:22:59;34.70;36.30
7232;DHT22;3657;49.630;11.018;2022-07-18T10:25:28;34.40;40.80
7232;DHT22;3657;49.630;11.018;2022-07-18T10:28:05;34.60;41.10
7232;DHT22;3657;49.630;11.018;2022-07-18T10:30:35;34.50;35.70
7232;DHT22;3657;49.630;11.018;2022-07-18T10:33:03;34.50;35.40
7232;DHT22;3657;49.630;11.018;2022-07-18T10:36:02;34.70;41.70
7232;DHT22;3657;49.630;11.018;2022-07-18T10:38:29;34.90;41.60
7232;DHT22;3657;49.630;11.018;2022-07-18T10:41:09;35.00;40.60
7232;DHT22;3657;49.630;11.018;2022-07-18T10:43:38;35.00;40.70
7232;DHT22;3657;49.630;11.018;2022-07-18T10:46:06;35.20;41.50
7232;DHT22;3657;49.630;11.018;2022-07-18T10:48:55;35.40;41.60
7232;DHT22;3657;49.630;11.018;2022-07-18T10:51:30;35.40;41.00
7232;DHT22;3657;49.630;11.018;2022-07-18T10:54:03;35.70;41.00
7232;DHT22;3657;49.630;11.018;2022-07-18T10:57:09;35.80;41.10
7232;DHT22;3657;49.630;11.018;2022-07-18T10:59:58;36.00;41.10
7232;DHT22;3657;49.630;11.018;2022-07-18T11:02:34;36.10;41.30
7232;DHT22;3657;49.630;11.018;2022-07-18T11:05:01;36.20;38.30
7232;DHT22;3657;49.630;11.018;2022-07-18T11:07:28;36.20;40.80
7232;DHT22;3657;49.630;11.018;2022-07-18T11:09:55;36.20;40.60
7232;DHT22;3657;49.630;11.018;2022-07-18T11:12:28;36.30;40.20
7232;DHT22;3657;49.630;11.018;2022-07-18T11:15:10;36.40;40.50
7232;DHT22;3657;49.630;11.018;2022-07-18T11:17:56;36.50;40.60
7232;DHT22;3657;49.630;11.018;2022-07-18T11:20:36;36.50;40.70
7232;DHT22;3657;49.630;11.018;2022-07-18T11:23:04;36.60;39.60
7232;DHT22;3657;49.630;11.018;2022-07-18T11:25:31;36.50;37.40
7232;DHT22;3657;49.630;11.018;2022-07-18T11:27:59;36.40;37.40
7232;DHT22;3657;49.630;11.018;2022-07-18T11:30:26;36.40;40.70
7232;DHT22;3657;49.630;11.018;2022-07-18T11:32:53;36.60;40.80
7232;DHT22;3657;49.630;11.018;2022-07-18T11:35:24;36.60;39.20
7232;DHT22;3657;49.630;11.018;2022-07-18T11:37:52;36.60;41.20
7232;DHT22;3657;49.630;11.018;2022-07-18T11:40:21;36.50;41.10
7232;DHT22;3657;49.630;11.018;2022-07-18T11:42:48;36.50;41.10
7232;DHT22;3657;49.630;11.018;2022-07-18T11:45:16;36.70;40.10
7232;DHT22;3657;49.630;11.018;2022-07-18T11:47:48;37.00;40.40
7232;DHT22;3657;49.630;11.018;2022-07-18T11:50:17;37.10;40.60
7232;DHT22;3657;49.630;11.018;2022-07-18T11:52:45;37.10;40.80
7232;DHT22;3657;49.630;11.018;2022-07-18T11:55:12;36.80;36.00
7232;DHT22;3657;49.630;11.018;2022-07-18T11:57:39;36.50;38.90
7232;DHT22;3657;49.630;11.018;2022-07-18T12:00:19;36.30;38.80
7232;DHT22;3657;49.630;11.018;2022-07-18T12:02:46;36.40;41.00
7232;DHT22;3657;49.630;11.018;2022-07-18T12:05:12;36.40;41.20
7232;DHT22;3657;49.630;11.018;2022-07-18T12:07:39;36.50;41.30
7232;DHT22;3657;49.630;11.018;2022-07-18T12:10:15;36.60;39.90
7232;DHT22;3657;49.630;11.018;2022-07-18T12:12:42;36.70;41.40
7232;DHT22;3657;49.630;11.018;2022-07-18T12:15:09;36.60;39.80
7232;DHT22;3657;49.630;11.018;2022-07-18T12:17:46;36.70;41.40
7232;DHT22;3657;49.630;11.018;2022-07-18T12:20:15;36.70;39.90
7232;DHT22;3657;49.630;11.018;2022-07-18T12:23:04;36.50;40.00
7232;DHT22;3657;49.630;11.018;2022-07-18T12:25:55;36.20;37.30
7232;DHT22;3657;49.630;11.018;2022-07-18T12:28:24;35.70;34.90
7232;DHT22;3657;49.630;11.018;2022-07-18T12:30:52;35.20;40.40
7232;DHT22;3657;49.630;11.018;2022-07-18T12:33:21;35.30;40.30
7232;DHT22;3657;49.630;11.018;2022-07-18T12:35:55;35.40;40.50
7232;DHT22;3657;49.630;11.018;2022-07-18T12:38:22;35.90;40.70
7232;DHT22;3657;49.630;11.018;2022-07-18T12:40:51;36.40;40.50
7232;DHT22;3657;49.630;11.018;2022-07-18T12:43:25;36.60;36.40
7232;DHT22;3657;49.630;11.018;2022-07-18T12:45:52;36.60;38.80
7232;DHT22;3657;49.630;11.018;2022-07-18T12:48:20;36.80;38.90
7232;DHT22;3657;49.630;11.018;2022-07-18T12:50:55;36.60;38.40
7232;DHT22;3657;49.630;11.018;2022-07-18T12:53:23;36.40;39.30
7232;DHT22;3657;49.630;11.018;2022-07-18T12:55:49;36.60;36.90
7232;DHT22;3657;49.630;11.018;2022-07-18T12:58:16;36.30;37.80
7232;DHT22;3657;49.630;11.018;2022-07-18T13:00:43;36.20;37.10
7232;DHT22;3657;49.630;11.018;2022-07-18T13:03:10;36.30;37.00
7232;DHT22;3657;49.630;11.018;2022-07-18T13:05:39;36.00;35.20
7232;DHT22;3657;49.630;11.018;2022-07-18T13:08:05;35.90;37.40
7232;DHT22;3657;49.630;11.018;2022-07-18T13:10:33;36.10;39.70
7232;DHT22;3657;49.630;11.018;2022-07-18T13:13:01;36.30;38.90
7232;DHT22;3657;49.630;11.018;2022-07-18T13:15:28;36.60;39.00
7232;DHT22;3657;49.630;11.018;2022-07-18T13:17:55;36.90;38.80
7232;DHT22;3657;49.630;11.018;2022-07-18T13:20:22;37.10;34.60
7232;DHT22;3657;49.630;11.018;2022-07-18T13:22:50;36.90;35.80
7232;DHT22;3657;49.630;11.018;2022-07-18T13:25:17;36.50;35.90
7232;DHT22;3657;49.630;11.018;2022-07-18T13:27:46;36.40;35.20
7232;DHT22;3657;49.630;11.018;2022-07-18T13:30:13;36.10;38.50
7232;DHT22;3657;49.630;11.018;2022-07-18T13:32:40;36.30;39.70
7232;DHT22;3657;49.630;11.018;2022-07-18T13:35:10;36.60;39.50
7232;DHT22;3657;49.630;11.018;2022-07-18T13:37:36;36.90;38.60
7232;DHT22;3657;49.630;11.018;2022-07-18T13:40:08;37.20;37.50
7232;DHT22;3657;49.630;11.018;2022-07-18T13:42:36;37.30;38.30
7232;DHT22;3657;49.630;11.018;2022-07-18T13:45:03;37.10;37.50
7232;DHT22;3657;49.630;11.018;2022-07-18T13:47:30;37.20;38.10
7232;DHT22;3657;49.630;11.018;2022-07-18T13:49:57;37.50;38.30
7232;DHT22;3657;49.630;11.018;2022-07-18T13:52:24;37.80;38.40
7232;DHT22;3657;49.630;11.018;2022-07-18T13:54:51;38.10;38.30
7232;DHT22;3657;49.630;11.018;2022-07-18T13:57:21;38.30;38.20
7232;DHT22;3657;49.630;11.018;2022-07-18T13:59:48;38.20;38.00
7232;DHT22;3657;49.630;11.018;2022-07-18T14:02:16;38.30;38.30
7232;DHT22;3657;49.630;11.018;2022-07-18T14:04:43;38.30;38.10
7232;DHT22;3657;49.630;11.018;2022-07-18T14:07:10;37.80;36.70
7232;DHT22;3657;49.630;11.018;2022-07-18T14:09:42;37.90;38.30
7232;DHT22;3657;49.630;11.018;2022-07-18T14:12:09;38.00;38.60
7232;DHT22;3657;49.630;11.018;2022-07-18T14:14:37;38.20;38.40
7232;DHT22;3657;49.630;11.018;2022-07-18T14:17:04;38.20;38.20
7232;DHT22;3657;49.630;11.018;2022-07-18T14:19:31;38.10;35.10
7232;DHT22;3657;49.630;11.018;2022-07-18T14:21:57;37.50;34.90
7232;DHT22;3657;49.630;11.018;2022-07-18T14:24:24;37.40;38.20
7232;DHT22;3657;49.630;11.018;2022-07-18T14:26:50;37.60;38.60
7232;DHT22;3657;49.630;11.018;2022-07-18T14:29:19;37.80;38.60
7232;DHT22;3657;49.630;11.018;2022-07-18T14:31:47;38.10;38.50
7232;DHT22;3657;49.630;11.018;2022-07-18T14:34:13;38.20;38.00
7232;DHT22;3657;49.630;11.018;2022-07-18T14:36:40;38.40;38.10
7232;DHT22;3657;49.630;11.018;2022-07-18T14:39:07;38.30;36.80
7232;DHT22;3657;49.630;11.018;2022-07-18T14:41:33;38.10;36.80
7232;DHT22;3657;49.630;11.018;2022-07-18T14:44:00;38.10;37.10
7232;DHT22;3657;49.630;11.018;2022-07-18T14:46:27;37.80;37.90
7232;DHT22;3657;49.630;11.018;2022-07-18T14:48:58;37.80;37.30
7232;DHT22;3657;49.630;11.018;2022-07-18T14:51:24;37.80;38.10
7232;DHT22;3657;49.630;11.018;2022-07-18T14:53:51;38.00;38.10
7232;DHT22;3657;49.630;11.018;2022-07-18T14:56:18;38.10;36.50
7232;DHT22;3657;49.630;11.018;2022-07-18T14:58:44;38.20;37.60
7232;DHT22;3657;49.630;11.018;2022-07-18T15:01:11;38.20;37.30
7232;DHT22;3657;49.630;11.018;2022-07-18T15:03:38;37.90;36.40
7232;DHT22;3657;49.630;11.018;2022-07-18T15:06:10;37.90;37.10
7232;DHT22;3657;49.630;11.018;2022-07-18T15:08:37;37.90;37.70
7232;DHT22;3657;49.630;11.018;2022-07-18T15:11:06;38.00;37.60
7232;DHT22;3657;49.630;11.018;2022-07-18T15:13:39;38.00;37.40
7232;DHT22;3657;49.630;11.018;2022-07-18T15:16:06;38.00;37.50
7232;DHT22;3657;49.630;11.018;2022-07-18T15:18:33;37.90;36.40
7232;DHT22;3657;49.630;11.018;2022-07-18T15:21:00;37.90;37.40
7232;DHT22;3657;49.630;11.018;2022-07-18T15:23:28;37.90;36.80
7232;DHT22;3657;49.630;11.018;2022-07-18T15:25:54;37.90;36.80
7232;DHT22;3657;49.630;11.018;2022-07-18T15:28:21;37.90;37.30
7232;DHT22;3657;49.630;11.018;2022-07-18T15:30:48;38.00;37.30
7232;DHT22;3657;49.630;11.018;2022-07-18T15:33:16;37.90;37.00
7232;DHT22;3657;49.630;11.018;2022-07-18T15:35:43;37.80;37.30
7232;DHT22;3657;49.630;11.018;2022-07-18T15:38:10;37.80;37.20
7232;DHT22;3657;49.630;11.018;2022-07-18T15:40:38;37.80;36.00
7232;DHT22;3657;49.630;11.018;2022-07-18T15:43:04;37.60;37.10
7232;DHT22;3657;49.630;11.018;2022-07-18T15:45:31;37.60;37.20
7232;DHT22;3657;49.630;11.018;2022-07-18T15:47:58;37.60;37.30
7232;DHT22;3657;49.630;11.018;2022-07-18T15:50:25;37.60;37.30
7232;DHT22;3657;49.630;11.018;2022-07-18T15:52:52;37.60;37.20